createdAt,value
2022-10-18T00:00:19.442Z,97250.19
2022-10-18T00:02:46.410Z,97248.66
2022-10-18T00:05:13.664Z,97249.56
2022-10-18T00:07:41.156Z,97255.38
2022-10-18T00:10:07.764Z,97250.06
2022-10-18T00:12:39.692Z,97253.34
2022-10-18T00:15:07.036Z,97257.22
2022-10-18T00:17:34.152Z,97264.94
2022-10-18T00:20:04.731Z,97260.16
2022-10-18T00:22:39.014Z,97259.75
2022-10-18T00:25:07.801Z,97252.38
2022-10-18T00:27:34.799Z,97255.44
2022-10-18T00:30:08.349Z,97257.47
2022-10-18T00:32:35.519Z,97256.84
2022-10-18T00:35:04.616Z,97260.75
2022-10-18T00:37:31.745Z,97261.13
2022-10-18T00:39:59.597Z,97268.13
2022-10-18T00:42:26.825Z,97259.81
2022-10-18T00:44:57.491Z,97258.56
2022-10-18T00:47:26.574Z,97254.59
2022-10-18T00:49:53.383Z,97265.28
2022-10-18T00:52:20.512Z,97256.94
2022-10-18T00:54:48.047Z,97258.25
2022-10-18T00:57:15.338Z,97262.81
2022-10-18T00:59:43.122Z,97266.19
2022-10-18T01:02:10.315Z,97267.00
2022-10-18T01:04:43.556Z,97270.16
2022-10-18T01:07:12.090Z,97259.56
2022-10-18T01:09:38.925Z,97262.44
2022-10-18T01:12:06.173Z,97265.84
2022-10-18T01:14:34.364Z,97278.28
2022-10-18T01:17:02.180Z,97272.31
2022-10-18T01:19:32.447Z,97267.09
2022-10-18T01:22:00.011Z,97271.22
2022-10-18T01:24:29.239Z,97260.22
2022-10-18T01:26:56.198Z,97262.94
2022-10-18T01:29:26.215Z,97261.72
2022-10-18T01:31:55.299Z,97255.66
2022-10-18T01:34:24.172Z,97262.66
2022-10-18T01:36:51.966Z,97266.19
2022-10-18T01:39:19.205Z,97264.84
2022-10-18T01:41:54.569Z,97273.94
2022-10-18T01:44:21.620Z,97269.94
2022-10-18T01:46:52.357Z,97267.53
2022-10-18T01:49:19.491Z,97264.72
2022-10-18T01:51:46.822Z,97271.44
2022-10-18T01:54:14.031Z,97277.50
2022-10-18T01:56:42.775Z,97273.31
2022-10-18T01:59:11.964Z,97271.69
2022-10-18T02:01:40.092Z,97268.56
2022-10-18T02:04:07.181Z,97262.50
2022-10-18T02:06:38.354Z,97260.13
2022-10-18T02:09:08.356Z,97262.81
2022-10-18T02:11:35.731Z,97259.50
2022-10-18T02:14:03.826Z,97265.19
2022-10-18T02:16:32.796Z,97260.66
2022-10-18T02:19:01.921Z,97264.88
2022-10-18T02:21:35.155Z,97264.13
2022-10-18T02:24:01.776Z,97266.94
2022-10-18T02:26:40.348Z,97261.88
2022-10-18T02:29:11.446Z,97266.06
2022-10-18T02:31:47.707Z,97263.22
2022-10-18T02:34:16.982Z,97258.31
2022-10-18T02:36:44.694Z,97261.28
2022-10-18T02:39:11.617Z,97254.91
2022-10-18T02:41:39.526Z,97252.50
2022-10-18T02:44:07.956Z,97260.03
2022-10-18T02:46:38.077Z,97259.31
2022-10-18T02:49:06.537Z,97262.19
2022-10-18T02:51:35.222Z,97258.75
2022-10-18T02:56:33.364Z,97263.94
2022-10-18T02:59:01.889Z,97266.25
2022-10-18T03:01:30.088Z,97265.38
2022-10-18T03:03:57.550Z,97267.91
2022-10-18T03:06:24.279Z,97269.78
2022-10-18T03:08:51.503Z,97277.66
2022-10-18T03:11:18.255Z,97275.72
2022-10-18T03:13:47.301Z,97286.78
2022-10-18T03:16:14.810Z,97289.44
2022-10-18T03:18:42.846Z,97282.06
2022-10-18T03:21:12.217Z,97277.97
2022-10-18T03:23:46.121Z,97285.09
2022-10-18T03:26:15.991Z,97292.00
2022-10-18T03:28:45.822Z,97288.25
2022-10-18T03:31:17.611Z,97298.47
2022-10-18T03:33:55.176Z,97290.28
2022-10-18T03:36:22.050Z,97289.91
2022-10-18T03:38:50.816Z,97290.94
2022-10-18T03:41:23.550Z,97282.44
2022-10-18T03:43:54.562Z,97289.88
2022-10-18T03:46:26.323Z,97293.63
2022-10-18T03:48:53.806Z,97295.53
2022-10-18T03:51:20.538Z,97298.81
2022-10-18T03:53:47.733Z,97307.00
2022-10-18T03:56:27.917Z,97300.97
2022-10-18T03:58:57.481Z,97307.34
2022-10-18T04:01:26.729Z,97309.25
2022-10-18T04:04:03.338Z,97306.94
2022-10-18T04:06:31.340Z,97314.38
2022-10-18T04:09:00.346Z,97321.47
2022-10-18T04:11:27.119Z,97326.19
2022-10-18T04:13:54.266Z,97324.22
2022-10-18T04:16:24.293Z,97328.47
2022-10-18T04:18:51.067Z,97330.59
2022-10-18T04:21:18.188Z,97328.09
2022-10-18T04:23:45.625Z,97334.31
2022-10-18T04:26:13.063Z,97324.00
2022-10-18T04:28:46.397Z,97323.75
2022-10-18T04:31:15.544Z,97318.75
2022-10-18T04:33:45.842Z,97318.91
2022-10-18T04:36:21.535Z,97323.47
2022-10-18T04:38:49.617Z,97319.22
2022-10-18T04:41:16.467Z,97324.28
2022-10-18T04:43:43.473Z,97316.50
2022-10-18T04:46:11.558Z,97319.91
2022-10-18T04:48:40.616Z,97318.97
2022-10-18T04:51:08.506Z,97325.34
2022-10-18T04:53:38.217Z,97319.94
2022-10-18T04:56:11.122Z,97326.81
2022-10-18T04:58:37.845Z,97329.31
2022-10-18T05:01:10.806Z,97330.44
2022-10-18T05:06:24.031Z,97333.34
2022-10-18T05:17:33.595Z,97320.97
2022-10-18T05:20:15.939Z,97329.75
2022-10-18T05:25:38.666Z,97335.66
2022-10-18T05:28:10.986Z,97329.47
2022-10-18T05:37:27.492Z,97333.72
2022-10-18T05:39:57.390Z,97340.81
2022-10-18T05:42:50.672Z,97340.81
2022-10-18T05:45:26.491Z,97338.72
2022-10-18T05:47:53.998Z,97341.59
2022-10-18T05:50:21.250Z,97338.38
2022-10-18T06:21:57.292Z,97336.44
2022-10-18T06:24:28.070Z,97336.16
2022-10-18T06:26:54.955Z,97328.19
2022-10-18T06:29:24.151Z,97331.31
2022-10-18T06:31:51.523Z,97348.84
2022-10-18T06:40:10.222Z,97353.28
2022-10-18T06:42:39.781Z,97359.53
2022-10-18T06:45:07.927Z,97358.00
2022-10-18T06:47:34.585Z,97368.13
2022-10-18T06:50:04.235Z,97368.13
2022-10-18T06:52:32.015Z,97363.63
2022-10-18T06:55:04.120Z,97366.16
2022-10-18T06:57:33.215Z,97354.34
2022-10-18T07:00:02.863Z,97367.78
2022-10-18T07:02:30.292Z,97364.16
2022-10-18T07:05:05.188Z,97367.78
2022-10-18T07:07:35.749Z,97368.91
2022-10-18T07:10:03.181Z,97377.03
2022-10-18T07:12:35.829Z,97358.31
2022-10-18T07:15:08.346Z,97362.13
2022-10-18T07:17:43.384Z,97367.72
2022-10-18T07:20:28.218Z,97369.31
2022-10-18T07:23:00.154Z,97364.06
2022-10-18T07:25:56.034Z,97368.84
2022-10-18T07:28:23.903Z,97369.31
2022-10-18T07:31:06.944Z,97370.97
2022-10-18T07:33:46.374Z,97369.31
2022-10-18T07:42:11.382Z,97369.34
2022-10-18T07:44:48.590Z,97373.50
2022-10-18T07:47:17.843Z,97363.94
2022-10-18T07:55:47.094Z,97375.41
2022-10-18T07:58:15.872Z,97367.25
2022-10-18T08:00:46.642Z,97368.13
2022-10-18T08:03:15.066Z,97371.72
2022-10-18T08:05:43.681Z,97369.31
2022-10-18T08:08:14.643Z,97362.44
2022-10-18T08:10:43.869Z,97374.06
2022-10-18T08:13:11.175Z,97377.81
2022-10-18T08:15:40.819Z,97373.28
2022-10-18T08:18:15.307Z,97374.25
2022-10-18T08:20:57.090Z,97373.28
2022-10-18T08:23:29.511Z,97372.66
2022-10-18T08:25:57.706Z,97379.50
2022-10-18T08:28:25.184Z,97377.78
2022-10-18T08:30:56.429Z,97376.28
2022-10-18T08:36:10.058Z,97371.91
2022-10-18T08:38:39.826Z,97378.75
2022-10-18T08:44:21.565Z,97377.13
2022-10-18T08:50:09.066Z,97359.22
2022-10-18T08:52:43.435Z,97362.28
2022-10-18T08:55:12.184Z,97361.38
2022-10-18T08:57:46.428Z,97361.41
2022-10-18T09:02:55.145Z,97366.88
2022-10-18T09:05:22.524Z,97362.91
2022-10-18T09:07:58.068Z,97364.88
2022-10-18T09:10:24.912Z,97355.72
2022-10-18T09:12:57.678Z,97358.16
2022-10-18T09:15:26.457Z,97358.63
2022-10-18T09:18:02.226Z,97361.78
2022-10-18T09:20:31.418Z,97360.28
2022-10-18T09:23:03.126Z,97357.31
2022-10-18T09:25:30.491Z,97352.06
2022-10-18T09:27:57.689Z,97344.28
2022-10-18T09:30:24.529Z,97346.59
2022-10-18T09:32:51.706Z,97341.63
2022-10-18T09:35:21.981Z,97342.94
2022-10-18T09:37:50.703Z,97342.75
2022-10-18T09:40:19.480Z,97336.59
2022-10-18T09:42:46.722Z,97339.00
2022-10-18T09:45:15.493Z,97334.41
2022-10-18T09:47:46.105Z,97332.63
2022-10-18T09:50:14.724Z,97333.25
2022-10-18T09:52:45.098Z,97343.38
2022-10-18T09:55:21.870Z,97334.84
2022-10-18T09:57:57.455Z,97332.25
2022-10-18T10:00:28.313Z,97335.84
2022-10-18T10:02:57.578Z,97333.09
2022-10-18T10:05:26.368Z,97335.41
2022-10-18T10:07:55.913Z,97326.03
2022-10-18T10:10:23.101Z,97328.81
2022-10-18T10:15:38.242Z,97333.25
2022-10-18T10:18:10.765Z,97326.78
2022-10-18T10:20:51.027Z,97319.28
2022-10-18T10:23:23.496Z,97326.50
2022-10-18T10:25:59.412Z,97318.91
2022-10-18T10:34:37.300Z,97324.13
2022-10-18T10:43:36.991Z,97314.38
2022-10-18T10:46:17.881Z,97319.72
2022-10-18T10:48:50.159Z,97316.63
2022-10-18T10:51:18.126Z,97317.31
2022-10-18T10:53:45.826Z,97308.38
2022-10-18T10:56:17.732Z,97314.13
2022-10-18T10:58:48.866Z,97308.75
2022-10-18T11:01:17.977Z,97308.75
2022-10-18T11:03:49.294Z,97307.69
2022-10-18T11:06:18.759Z,97301.41
2022-10-18T11:08:54.546Z,97299.94
2022-10-18T11:11:36.053Z,97297.88
2022-10-18T11:14:24.658Z,97290.84
2022-10-18T11:16:52.640Z,97284.25
2022-10-18T11:19:28.517Z,97285.25
2022-10-18T11:22:02.353Z,97283.63
2022-10-18T11:24:33.966Z,97281.75
2022-10-18T11:27:01.647Z,97273.19
2022-10-18T11:29:49.752Z,97274.44
2022-10-18T11:32:19.480Z,97275.84
2022-10-18T11:37:46.399Z,97256.47
2022-10-18T11:46:08.064Z,97242.88
2022-10-18T11:48:44.394Z,97244.50
2022-10-18T11:51:12.299Z,97247.25
2022-10-18T11:53:48.277Z,97238.75
2022-10-18T11:56:18.124Z,97232.22
2022-10-18T11:58:45.504Z,97222.63
2022-10-18T12:01:12.575Z,97212.13
2022-10-18T12:03:51.743Z,97213.13
2022-10-18T12:06:27.688Z,97214.41
2022-10-18T12:08:55.213Z,97210.78
2022-10-18T12:11:23.485Z,97200.38
2022-10-18T12:13:52.059Z,97200.75
2022-10-18T12:16:39.025Z,97198.75
2022-10-18T12:19:10.717Z,97190.13
2022-10-18T12:21:38.928Z,97198.13
2022-10-18T12:24:07.362Z,97195.84
2022-10-18T12:26:37.401Z,97198.88
2022-10-18T12:29:04.765Z,97179.69
2022-10-18T12:31:31.630Z,97180.72
2022-10-18T12:33:59.433Z,97181.19
2022-10-18T12:36:26.598Z,97175.44
2022-10-18T12:38:57.928Z,97171.19
2022-10-18T12:41:32.572Z,97176.66
2022-10-18T12:44:04.938Z,97166.59
2022-10-18T12:49:00.688Z,97162.03
2022-10-18T12:51:27.579Z,97159.09
2022-10-18T12:53:54.758Z,97158.47
2022-10-18T12:56:25.264Z,97149.78
2022-10-18T12:58:57.022Z,97144.03
2022-10-18T13:01:24.582Z,97146.75
2022-10-18T13:03:57.963Z,97148.16
2022-10-18T13:06:25.211Z,97136.69
2022-10-18T13:09:02.758Z,97142.31
2022-10-18T13:11:40.552Z,97135.88
2022-10-18T13:19:58.017Z,97136.13
2022-10-18T13:22:35.702Z,97130.00
2022-10-18T13:25:08.540Z,97127.47
2022-10-18T13:27:36.653Z,97122.50
2022-10-18T13:35:39.841Z,97127.00
2022-10-18T13:38:08.862Z,97121.34
2022-10-18T13:40:41.199Z,97125.69
2022-10-18T13:43:11.872Z,97121.09
2022-10-18T13:45:41.476Z,97134.84
2022-10-18T13:48:10.969Z,97123.78
2022-10-18T13:50:38.930Z,97120.47
2022-10-18T13:53:17.362Z,97128.03
2022-10-18T13:55:53.466Z,97122.41
2022-10-18T13:58:23.775Z,97121.63
2022-10-18T14:00:55.816Z,97126.00
2022-10-18T14:03:55.090Z,97123.56
2022-10-18T14:09:25.363Z,97127.88
2022-10-18T14:15:03.689Z,97119.03
2022-10-18T14:22:47.802Z,97119.03
2022-10-18T14:25:21.376Z,97115.13
2022-10-18T14:27:50.931Z,97112.16
2022-10-18T14:30:22.845Z,97106.53
2022-10-18T14:32:50.280Z,97113.88
2022-10-18T14:35:32.021Z,97106.97
2022-10-18T14:38:05.972Z,97110.91
2022-10-18T14:40:33.288Z,97105.31
2022-10-18T14:43:02.293Z,97107.00
2022-10-18T14:45:31.274Z,97108.50
2022-10-18T14:47:59.120Z,97106.75
2022-10-18T14:50:30.415Z,97106.28
2022-10-18T14:53:01.797Z,97097.19
2022-10-18T14:55:33.434Z,97097.19
2022-10-18T14:58:01.958Z,97097.19
2022-10-18T15:00:30.727Z,97094.63
2022-10-18T15:02:57.950Z,97086.28
2022-10-18T15:05:29.744Z,97089.59
2022-10-18T15:07:57.236Z,97088.38
2022-10-18T15:13:16.906Z,97076.63
2022-10-18T15:15:50.424Z,97079.78
2022-10-18T15:18:19.643Z,97081.53
2022-10-18T15:23:32.536Z,97083.47
2022-10-18T15:26:02.015Z,97078.59
2022-10-18T15:34:26.029Z,97085.13
2022-10-18T15:36:58.684Z,97080.44
2022-10-18T15:39:28.808Z,97070.84
2022-10-18T15:41:55.803Z,97074.19
2022-10-18T15:44:25.740Z,97069.09
2022-10-18T15:46:54.417Z,97066.16
2022-10-18T15:49:21.750Z,97069.56
2022-10-18T15:51:48.974Z,97062.44
2022-10-18T15:54:15.977Z,97061.72
2022-10-18T15:56:46.295Z,97048.00
2022-10-18T16:02:10.407Z,97041.63
2022-10-18T16:04:44.917Z,97043.28
2022-10-18T16:07:20.370Z,97037.16
2022-10-18T16:15:36.387Z,97039.03
2022-10-18T16:18:07.751Z,97039.72
2022-10-18T16:23:30.808Z,97039.66
2022-10-18T16:26:02.407Z,97039.09
2022-10-18T16:28:31.614Z,97043.69
2022-10-18T16:31:00.029Z,97041.22
2022-10-18T16:36:22.202Z,97040.59
2022-10-18T16:39:04.783Z,97038.69
2022-10-18T16:41:52.267Z,97042.06
2022-10-18T16:44:27.714Z,97044.94
2022-10-18T16:46:56.257Z,97050.66
2022-10-18T16:54:56.424Z,97051.81
2022-10-18T17:00:11.299Z,97063.84
2022-10-18T17:02:42.360Z,97060.78
2022-10-18T17:05:13.187Z,97062.78
2022-10-18T17:07:51.411Z,97066.56
2022-10-18T17:10:20.993Z,97071.53
2022-10-18T17:12:49.139Z,97059.59
2022-10-18T17:15:35.357Z,97063.19
2022-10-18T17:18:02.718Z,97066.63
2022-10-18T17:20:30.783Z,97071.75
2022-10-18T17:22:59.328Z,97069.16
2022-10-18T17:30:51.431Z,97081.38
2022-10-18T18:08:06.878Z,97105.44
2022-10-18T18:17:10.128Z,97116.22
2022-10-18T18:22:30.712Z,97110.16
2022-10-18T18:25:03.735Z,97113.84
2022-10-18T18:27:30.685Z,97112.00
2022-10-18T18:29:59.698Z,97117.38
2022-10-18T18:32:47.782Z,97126.44
2022-10-18T18:35:18.866Z,97118.22
2022-10-18T18:37:50.128Z,97133.19
2022-10-18T18:40:20.074Z,97125.63
2022-10-18T18:43:01.426Z,97124.84
2022-10-18T18:45:34.482Z,97122.34
2022-10-18T18:48:12.719Z,97124.41
2022-10-18T18:50:52.597Z,97129.47
2022-10-18T18:53:28.617Z,97130.44
2022-10-18T18:56:01.507Z,97120.81
2022-10-18T18:58:30.806Z,97119.41
2022-10-18T19:01:02.721Z,97121.78
2022-10-18T19:03:31.448Z,97118.31
2022-10-18T19:06:02.269Z,97118.13
2022-10-18T19:08:31.594Z,97118.56
2022-10-18T19:11:02.503Z,97116.38
2022-10-18T19:13:32.318Z,97119.53
2022-10-18T19:25:28.465Z,97122.75
2022-10-18T19:27:55.922Z,97112.91
2022-10-18T19:35:51.532Z,97113.75
2022-10-18T19:38:22.414Z,97118.00
2022-10-18T19:40:58.206Z,97111.88
2022-10-18T19:43:31.174Z,97117.38
2022-10-18T19:45:59.401Z,97115.81
2022-10-18T19:48:26.869Z,97119.69
2022-10-18T19:50:58.536Z,97110.50
2022-10-18T19:53:34.026Z,97117.66
2022-10-18T19:58:54.532Z,97116.38
2022-10-18T20:01:23.667Z,97121.66
2022-10-18T20:03:50.743Z,97125.88
2022-10-18T20:06:19.995Z,97124.09
2022-10-18T20:08:47.534Z,97131.31
2022-10-18T20:11:17.707Z,97122.94
2022-10-18T20:13:51.460Z,97121.09
2022-10-18T20:16:18.762Z,97111.88
2022-10-18T20:18:50.409Z,97116.06
2022-10-18T20:21:17.816Z,97111.84
2022-10-18T20:23:45.281Z,97111.06
2022-10-18T20:26:18.204Z,97117.81
2022-10-18T20:28:50.161Z,97112.34
2022-10-18T20:31:18.512Z,97114.44
2022-10-18T20:33:47.849Z,97125.84
2022-10-18T20:36:15.517Z,97119.53
2022-10-18T20:38:44.926Z,97119.53
2022-10-18T20:41:12.898Z,97118.56
2022-10-18T20:43:39.937Z,97125.66
2022-10-18T20:46:09.183Z,97125.28
2022-10-18T20:48:36.927Z,97117.84
2022-10-18T20:51:06.710Z,97122.78
2022-10-18T20:53:33.998Z,97121.78
2022-10-18T20:56:13.906Z,97118.25
2022-10-18T20:58:41.493Z,97117.09
2022-10-18T21:01:08.467Z,97125.47
2022-10-18T21:03:35.343Z,97123.03
2022-10-18T21:06:05.862Z,97122.59
2022-10-18T21:08:33.196Z,97126.47
2022-10-18T21:11:04.681Z,97120.97
2022-10-18T21:13:31.759Z,97116.44
2022-10-18T21:15:58.858Z,97112.97
2022-10-18T21:18:28.415Z,97115.91
2022-10-18T21:20:56.377Z,97108.56
2022-10-18T21:23:23.144Z,97106.53
2022-10-18T21:25:53.595Z,97108.78
2022-10-18T21:28:23.507Z,97108.25
2022-10-18T21:30:54.676Z,97107.94
2022-10-18T21:33:21.719Z,97102.47
2022-10-18T21:35:50.587Z,97105.59
2022-10-18T21:38:19.208Z,97101.13
2022-10-18T21:40:46.880Z,97099.94
2022-10-18T21:43:15.895Z,97100.53
2022-10-18T21:45:42.746Z,97097.94
2022-10-18T21:48:11.904Z,97099.34
2022-10-18T21:50:39.212Z,97099.59
2022-10-18T21:53:06.603Z,97100.50
2022-10-18T21:55:36.747Z,97095.16
2022-10-18T21:58:04.951Z,97092.94
2022-10-18T22:00:33.709Z,97085.53
2022-10-18T22:03:01.503Z,97082.88
2022-10-18T22:05:30.615Z,97078.41
2022-10-18T22:08:00.678Z,97077.94
2022-10-18T22:10:28.082Z,97076.34
2022-10-18T22:12:55.375Z,97081.69
2022-10-18T22:15:22.565Z,97084.50
2022-10-18T22:17:51.555Z,97080.78
2022-10-18T22:20:18.537Z,97076.44
2022-10-18T22:22:45.344Z,97086.34
2022-10-18T22:25:24.683Z,97074.50
2022-10-18T22:27:54.611Z,97079.31
2022-10-18T22:30:21.386Z,97077.13
2022-10-18T22:32:49.529Z,97071.72
2022-10-18T22:35:16.548Z,97067.41
2022-10-18T22:37:49.008Z,97066.69
2022-10-18T22:40:22.382Z,97067.91
2022-10-18T22:42:49.368Z,97065.97
2022-10-18T22:45:17.555Z,97065.66
2022-10-18T22:47:46.237Z,97062.22
2022-10-18T22:50:13.160Z,97057.78
2022-10-18T22:52:40.727Z,97054.69
2022-10-18T22:55:09.105Z,97046.66
2022-10-18T22:57:45.715Z,97050.69
2022-10-18T23:00:12.641Z,97052.19
2022-10-18T23:02:39.581Z,97048.59
2022-10-18T23:05:17.122Z,97035.50
2022-10-18T23:07:44.580Z,97039.69
2022-10-18T23:10:11.592Z,97032.56
2022-10-18T23:12:39.726Z,97033.19
2022-10-18T23:15:06.567Z,97029.59
2022-10-18T23:17:37.472Z,97030.66
2022-10-18T23:20:04.796Z,97029.06
2022-10-18T23:22:34.576Z,97031.41
2022-10-18T23:25:04.083Z,97028.97
2022-10-18T23:27:32.951Z,97026.72
2022-10-18T23:30:15.374Z,97017.97
2022-10-18T23:32:42.253Z,97024.31
2022-10-18T23:35:09.074Z,97023.84
2022-10-18T23:37:54.573Z,97017.78
2022-10-18T23:40:23.470Z,97019.66
2022-10-18T23:42:50.384Z,97017.28
2022-10-18T23:45:17.430Z,97018.63
2022-10-18T23:47:49.500Z,97016.22
2022-10-18T23:50:16.556Z,97022.50
2022-10-18T23:52:44.253Z,97023.66
2022-10-18T23:55:12.757Z,97022.66
